createdAt,value
2018-04-30T00:02:18.708Z,11.33
2018-04-30T00:04:46.287Z,11.37
2018-04-30T00:07:13.883Z,11.73
2018-04-30T00:09:42.273Z,12.17
2018-04-30T00:12:09.835Z,11.27
2018-04-30T00:14:37.404Z,12.17
2018-04-30T00:17:04.971Z,11.30
2018-04-30T00:19:32.547Z,11.87
2018-04-30T00:22:00.168Z,11.97
2018-04-30T00:24:28.513Z,12.07
2018-04-30T00:26:56.097Z,12.97
2018-04-30T00:29:25.191Z,12.00
2018-04-30T00:31:53.652Z,12.40
2018-04-30T00:34:21.227Z,12.90
2018-04-30T00:36:48.795Z,13.47
2018-04-30T00:39:17.128Z,13.83
2018-04-30T00:41:44.720Z,13.87
2018-04-30T00:44:12.316Z,14.30
2018-04-30T00:46:40.716Z,13.60
2018-04-30T00:49:08.289Z,14.50
2018-04-30T00:51:35.880Z,15.17
2018-04-30T00:54:03.435Z,14.67
2018-04-30T00:56:31.021Z,14.57
2018-04-30T00:58:59.371Z,15.27
2018-04-30T01:01:26.947Z,14.07
2018-04-30T01:03:54.520Z,14.90
2018-04-30T01:06:22.883Z,15.87
2018-04-30T01:08:50.476Z,15.40
2018-04-30T01:11:18.838Z,15.53
2018-04-30T01:13:47.231Z,16.00
2018-04-30T01:16:15.576Z,15.53
2018-04-30T01:18:43.172Z,16.80
2018-04-30T01:21:10.773Z,16.03
2018-04-30T01:23:38.449Z,15.70
2018-04-30T01:26:06.032Z,17.13
2018-04-30T01:28:33.632Z,15.70
2018-04-30T01:31:01.207Z,17.83
2018-04-30T01:33:28.896Z,17.20
2018-04-30T01:35:56.452Z,16.77
2018-04-30T01:38:24.028Z,16.23
2018-04-30T01:40:52.383Z,17.67
2018-04-30T01:43:20.044Z,16.73
2018-04-30T01:45:47.640Z,17.37
2018-04-30T01:48:15.231Z,19.20
2018-04-30T01:50:42.819Z,17.93
2018-04-30T01:53:10.399Z,18.20
2018-04-30T01:55:37.972Z,17.90
2018-04-30T01:58:05.630Z,18.07
2018-04-30T02:00:33.260Z,19.33
2018-04-30T02:03:00.932Z,19.20
2018-04-30T02:05:28.524Z,19.63
2018-04-30T02:07:56.117Z,20.50
2018-04-30T02:10:24.447Z,20.40
2018-04-30T02:12:52.052Z,18.77
2018-04-30T02:15:20.404Z,20.87
2018-04-30T02:17:47.979Z,21.87
2018-04-30T02:20:15.552Z,22.40
2018-04-30T02:22:43.900Z,24.13
2018-04-30T02:25:11.479Z,25.83
2018-04-30T02:27:39.087Z,25.60
2018-04-30T02:30:06.788Z,26.43
2018-04-30T02:32:34.399Z,25.80
2018-04-30T02:35:01.962Z,26.50
2018-04-30T02:37:30.307Z,26.83
2018-04-30T02:39:57.884Z,26.73
2018-04-30T02:42:26.239Z,26.73
2018-04-30T02:44:53.842Z,27.00
2018-04-30T02:47:21.443Z,27.10
2018-04-30T02:49:49.048Z,28.80
2018-04-30T02:52:17.409Z,27.30
2018-04-30T02:54:44.970Z,27.10
2018-04-30T02:57:12.616Z,28.20
2018-04-30T02:59:40.214Z,30.50
2018-04-30T03:02:08.538Z,27.73
2018-04-30T03:04:36.128Z,29.60
2018-04-30T03:07:03.692Z,29.43
2018-04-30T03:09:31.297Z,31.07
2018-04-30T03:11:58.883Z,30.33
2018-04-30T03:14:26.510Z,32.33
2018-04-30T03:16:54.081Z,31.43
2018-04-30T03:19:21.705Z,34.30
2018-04-30T03:21:49.291Z,32.80
2018-04-30T03:24:17.658Z,33.50
2018-04-30T03:26:46.002Z,35.27
2018-04-30T03:29:13.603Z,35.13
2018-04-30T03:31:41.197Z,35.40
2018-04-30T03:34:08.771Z,34.33
2018-04-30T03:36:36.414Z,34.13
2018-04-30T03:39:04.001Z,34.03
2018-04-30T03:41:31.605Z,33.57
2018-04-30T03:43:59.950Z,34.80
2018-04-30T03:46:27.524Z,33.60
2018-04-30T03:48:55.104Z,31.07
2018-04-30T03:51:23.482Z,33.73
2018-04-30T03:53:51.103Z,33.33
2018-04-30T03:56:18.824Z,31.73
2018-04-30T03:58:47.160Z,31.90
2018-04-30T04:01:26.823Z,31.87
2018-04-30T04:04:06.056Z,33.43
2018-04-30T04:06:45.309Z,32.80
2018-04-30T04:09:13.649Z,32.00
2018-04-30T04:11:41.235Z,32.60
2018-04-30T04:14:08.856Z,35.30
2018-04-30T04:16:36.448Z,33.17
2018-04-30T04:19:05.529Z,34.87
2018-04-30T04:21:33.214Z,35.80
2018-04-30T04:24:00.776Z,36.50
2018-04-30T04:26:28.369Z,37.77
2018-04-30T04:28:56.705Z,38.90
2018-04-30T04:31:24.296Z,37.50
2018-04-30T04:33:52.757Z,37.33
2018-04-30T04:36:20.341Z,35.80
2018-04-30T04:38:48.704Z,32.50
2018-04-30T04:41:16.339Z,29.03
2018-04-30T04:43:43.935Z,29.60
2018-04-30T04:46:12.301Z,25.23
2018-04-30T04:48:39.992Z,26.20
2018-04-30T04:51:08.336Z,24.93
2018-04-30T04:53:35.939Z,23.50
2018-04-30T04:56:04.271Z,22.07
2018-04-30T04:58:31.872Z,20.50
2018-04-30T05:01:00.873Z,20.53
2018-04-30T05:03:29.615Z,17.37
2018-04-30T05:05:57.172Z,14.13
2018-04-30T05:08:24.786Z,13.27
2018-04-30T05:10:52.492Z,12.27
2018-04-30T05:13:20.041Z,9.30
2018-04-30T05:15:47.613Z,7.90
2018-04-30T05:18:15.207Z,9.23
2018-04-30T05:20:42.775Z,7.57
2018-04-30T05:23:11.118Z,6.80
2018-04-30T05:25:38.710Z,6.80
2018-04-30T05:28:07.047Z,6.33
2018-04-30T05:30:34.668Z,4.87
2018-04-30T05:33:02.280Z,5.23
2018-04-30T05:35:29.889Z,6.00
2018-04-30T05:37:58.220Z,4.87
2018-04-30T05:40:26.847Z,4.93
2018-04-30T05:42:55.189Z,6.23
2018-04-30T05:45:22.787Z,5.67
2018-04-30T05:47:51.219Z,4.70
2018-04-30T05:50:18.824Z,4.80
2018-04-30T05:52:47.144Z,3.97
2018-04-30T05:55:14.742Z,3.90
2018-04-30T05:57:42.291Z,3.20
2018-04-30T06:00:09.888Z,3.40
2018-04-30T06:02:37.442Z,3.23
2018-04-30T06:05:05.823Z,3.10
2018-04-30T06:07:34.167Z,1.90
2018-04-30T06:10:01.805Z,2.20
2018-04-30T06:12:29.403Z,2.73
2018-04-30T06:14:57.101Z,2.10
2018-04-30T06:17:25.520Z,3.33
2018-04-30T06:19:53.028Z,3.40
2018-04-30T06:22:21.401Z,2.90
2018-04-30T06:24:49.025Z,2.30
2018-04-30T06:27:16.611Z,1.60
2018-04-30T06:29:44.259Z,2.60
2018-04-30T06:32:11.837Z,1.80
2018-04-30T06:34:39.401Z,1.70
2018-04-30T06:37:06.987Z,2.47
2018-04-30T06:39:35.347Z,2.57
2018-04-30T06:42:02.957Z,1.63
2018-04-30T06:44:30.544Z,2.30
2018-04-30T06:46:58.141Z,2.87
2018-04-30T06:49:26.536Z,2.53
2018-04-30T06:51:54.106Z,2.30
2018-04-30T06:54:21.714Z,1.80
2018-04-30T06:56:49.296Z,2.03
2018-04-30T06:59:16.914Z,2.10
2018-04-30T07:01:44.465Z,1.97
2018-04-30T07:04:12.077Z,2.10
2018-04-30T07:06:39.651Z,1.70
2018-04-30T07:09:08.038Z,2.07
2018-04-30T07:11:35.567Z,2.37
2018-04-30T07:14:03.204Z,2.20
2018-04-30T07:16:30.788Z,1.80
2018-04-30T07:18:58.361Z,1.93
2018-04-30T07:21:25.933Z,2.27
2018-04-30T07:23:54.315Z,1.70
2018-04-30T07:26:21.883Z,1.70
2018-04-30T07:28:50.220Z,2.07
2018-04-30T07:31:17.802Z,1.90
2018-04-30T07:33:45.366Z,2.43
2018-04-30T07:36:12.941Z,2.00
2018-04-30T07:38:41.357Z,2.20
2018-04-30T07:41:09.056Z,2.30
2018-04-30T07:43:36.616Z,2.00
2018-04-30T07:46:04.208Z,1.67
2018-04-30T07:48:32.568Z,2.27
2018-04-30T07:51:00.144Z,3.70
2018-04-30T07:53:28.482Z,2.63
2018-04-30T07:55:56.040Z,2.40
2018-04-30T07:58:23.643Z,2.23
2018-04-30T08:00:51.238Z,4.00
2018-04-30T08:03:18.811Z,2.40
2018-04-30T08:05:46.428Z,1.90
2018-04-30T08:08:14.032Z,3.40
2018-04-30T08:10:41.597Z,1.97
2018-04-30T08:13:09.179Z,2.57
2018-04-30T08:15:37.323Z,2.20
2018-04-30T08:18:04.968Z,1.90
2018-04-30T08:20:32.566Z,2.13
2018-04-30T08:23:00.145Z,2.90
2018-04-30T08:25:27.944Z,2.50
2018-04-30T08:27:56.353Z,2.60
2018-04-30T08:30:23.903Z,2.63
2018-04-30T08:32:51.532Z,1.80
2018-04-30T08:35:20.338Z,2.13
2018-04-30T08:37:48.709Z,2.23
2018-04-30T08:40:17.133Z,2.73
2018-04-30T08:42:44.709Z,2.37
2018-04-30T08:45:12.268Z,2.30
2018-04-30T08:47:39.912Z,2.33
2018-04-30T08:50:07.478Z,2.30
2018-04-30T08:52:35.024Z,2.33
2018-04-30T08:55:02.707Z,3.53
2018-04-30T08:57:30.308Z,2.97
2018-04-30T08:59:57.904Z,2.07
2018-04-30T09:02:25.463Z,2.53
2018-04-30T09:04:53.042Z,2.40
2018-04-30T09:07:20.604Z,2.27
2018-04-30T09:09:48.478Z,1.90
2018-04-30T09:12:16.044Z,1.83
2018-04-30T09:14:43.609Z,2.53
2018-04-30T09:17:11.194Z,3.00
2018-04-30T09:19:38.798Z,3.13
2018-04-30T09:22:07.151Z,2.30
2018-04-30T09:24:34.860Z,2.77
2018-04-30T09:27:02.446Z,2.40
2018-04-30T09:29:30.046Z,2.57
2018-04-30T09:31:58.402Z,2.30
2018-04-30T09:34:26.871Z,2.20
2018-04-30T09:36:54.426Z,2.20
2018-04-30T09:39:22.028Z,2.30
2018-04-30T09:41:50.441Z,2.50
2018-04-30T09:44:18.026Z,2.53
2018-04-30T09:46:45.637Z,2.50
2018-04-30T09:49:14.222Z,3.13
2018-04-30T09:51:41.797Z,2.90
2018-04-30T09:54:09.372Z,3.00
2018-04-30T09:56:37.006Z,2.10
2018-04-30T09:59:05.369Z,2.10
2018-04-30T10:01:32.977Z,2.17
2018-04-30T10:04:00.576Z,2.37
2018-04-30T10:06:28.168Z,4.63
2018-04-30T10:08:56.498Z,2.70
2018-04-30T10:11:24.076Z,2.37
2018-04-30T10:13:51.813Z,2.27
2018-04-30T10:16:19.420Z,2.63
2018-04-30T10:18:47.024Z,2.80
2018-04-30T10:21:14.589Z,3.10
2018-04-30T10:23:42.245Z,1.90
2018-04-30T10:26:09.815Z,3.33
2018-04-30T10:28:37.483Z,2.77
2018-04-30T10:31:05.048Z,2.10
2018-04-30T10:33:32.633Z,2.30
2018-04-30T10:36:00.196Z,2.57
2018-04-30T10:38:28.502Z,2.67
2018-04-30T10:40:57.029Z,2.90
2018-04-30T10:43:24.625Z,3.10
2018-04-30T10:45:52.257Z,1.87
2018-04-30T10:48:19.851Z,2.33
2018-04-30T10:50:47.435Z,3.83
2018-04-30T10:53:15.797Z,2.00
2018-04-30T10:55:43.370Z,1.60
2018-04-30T10:58:11.741Z,3.63
2018-04-30T11:00:40.138Z,2.07
2018-04-30T11:03:08.512Z,2.30
2018-04-30T11:05:37.309Z,2.13
2018-04-30T11:08:05.712Z,2.20
2018-04-30T11:10:33.362Z,2.97
2018-04-30T11:13:01.035Z,2.53
2018-04-30T11:15:28.637Z,3.17
2018-04-30T11:17:56.405Z,1.87
2018-04-30T11:20:24.039Z,2.40
2018-04-30T11:22:51.630Z,1.70
2018-04-30T11:25:19.287Z,2.00
2018-04-30T11:27:47.226Z,2.80
2018-04-30T11:30:14.878Z,3.53
2018-04-30T11:32:42.458Z,2.30
2018-04-30T11:35:10.900Z,1.80
2018-04-30T11:37:39.253Z,2.20
2018-04-30T11:40:06.927Z,2.07
2018-04-30T11:42:35.181Z,2.27
2018-04-30T11:45:02.735Z,1.87
2018-04-30T11:47:30.292Z,2.20
2018-04-30T11:49:57.951Z,2.30
2018-04-30T11:52:25.544Z,3.33
2018-04-30T11:54:53.144Z,2.80
2018-04-30T11:57:20.705Z,2.17
2018-04-30T11:59:48.312Z,2.60
2018-04-30T12:02:15.919Z,3.07
2018-04-30T12:04:43.475Z,2.30
2018-04-30T12:07:11.064Z,2.27
2018-04-30T12:09:38.632Z,2.97
2018-04-30T12:12:06.275Z,1.93
2018-04-30T12:14:33.836Z,2.27
2018-04-30T12:17:01.451Z,1.93
2018-04-30T12:19:29.138Z,2.20
2018-04-30T12:21:57.538Z,2.30
2018-04-30T12:24:25.084Z,2.60
2018-04-30T12:26:52.681Z,1.93
2018-04-30T12:29:20.287Z,1.67
2018-04-30T12:31:48.686Z,1.70
2018-04-30T12:34:16.265Z,3.40
2018-04-30T12:36:43.852Z,2.10
2018-04-30T12:39:11.468Z,2.30
2018-04-30T12:41:39.835Z,1.40
2018-04-30T12:44:08.253Z,1.60
2018-04-30T12:46:35.815Z,2.00
2018-04-30T12:49:03.405Z,2.13
2018-04-30T12:51:31.014Z,1.90
2018-04-30T12:53:58.613Z,2.10
2018-04-30T12:56:26.202Z,2.20
2018-04-30T12:58:53.864Z,1.93
2018-04-30T13:01:21.495Z,1.50
2018-04-30T13:03:49.854Z,1.60
2018-04-30T13:06:17.412Z,2.30
2018-04-30T13:08:45.118Z,1.60
2018-04-30T13:11:12.692Z,1.90
2018-04-30T13:13:40.352Z,3.27
2018-04-30T13:16:07.976Z,3.47
2018-04-30T13:18:35.581Z,1.70
2018-04-30T13:21:03.733Z,1.87
2018-04-30T13:23:31.308Z,1.50
2018-04-30T13:25:58.926Z,1.63
2018-04-30T13:28:26.511Z,2.80
2018-04-30T13:30:54.903Z,2.80
2018-04-30T13:33:22.456Z,2.43
2018-04-30T13:35:50.056Z,2.27
2018-04-30T13:38:17.616Z,3.57
2018-04-30T13:40:45.994Z,2.90
2018-04-30T13:43:13.592Z,2.47
2018-04-30T13:45:41.188Z,2.67
2018-04-30T13:48:08.813Z,2.17
2018-04-30T13:50:36.414Z,1.57
2018-04-30T13:53:03.984Z,1.53
2018-04-30T13:55:31.545Z,1.93
2018-04-30T13:58:00.116Z,2.17
2018-04-30T14:00:27.696Z,3.00
2018-04-30T14:02:55.305Z,2.83
2018-04-30T14:05:22.903Z,2.60
2018-04-30T14:07:50.486Z,2.00
2018-04-30T14:10:18.642Z,2.83
2018-04-30T14:12:46.242Z,1.97
2018-04-30T14:15:14.611Z,1.73
2018-04-30T14:17:42.298Z,2.20
2018-04-30T14:20:09.877Z,1.93
2018-04-30T14:22:38.428Z,1.77
2018-04-30T14:25:06.762Z,1.40
2018-04-30T14:27:34.345Z,1.73
2018-04-30T14:30:01.926Z,2.17
2018-04-30T14:32:30.272Z,2.40
2018-04-30T14:34:57.906Z,1.87
2018-04-30T14:37:26.229Z,2.00
2018-04-30T14:39:53.772Z,2.07
2018-04-30T14:42:21.364Z,2.43
2018-04-30T14:44:49.742Z,1.50
2018-04-30T14:47:17.348Z,1.67
2018-04-30T14:49:45.740Z,2.83
2018-04-30T14:52:13.329Z,3.50
2018-04-30T14:54:41.070Z,2.17
2018-04-30T14:57:08.657Z,2.33
2018-04-30T14:59:36.247Z,1.80
2018-04-30T15:02:03.834Z,1.63
2018-04-30T15:04:31.444Z,2.40
2018-04-30T15:06:59.028Z,1.63
2018-04-30T15:09:27.437Z,2.30
2018-04-30T15:11:55.041Z,3.90
2018-04-30T15:14:22.621Z,3.67
2018-04-30T15:16:50.987Z,1.90
2018-04-30T15:19:18.575Z,2.13
2018-04-30T15:21:46.160Z,2.30
2018-04-30T15:24:13.728Z,2.07
2018-04-30T15:26:41.332Z,1.83
2018-04-30T15:29:08.927Z,2.30
2018-04-30T15:31:37.252Z,1.70
2018-04-30T15:34:04.827Z,1.33
2018-04-30T15:36:32.444Z,1.50
2018-04-30T15:39:00.032Z,1.90
2018-04-30T15:41:27.643Z,1.83
2018-04-30T15:43:55.272Z,2.40
2018-04-30T15:46:23.612Z,2.30
2018-04-30T15:48:51.195Z,1.47
2018-04-30T15:51:18.791Z,1.93
2018-04-30T15:53:47.252Z,1.60
2018-04-30T15:56:14.819Z,1.93
2018-04-30T15:58:42.489Z,2.20
2018-04-30T16:01:10.029Z,1.60
2018-04-30T16:03:37.613Z,1.83
2018-04-30T16:06:05.199Z,6.50
2018-04-30T16:08:33.548Z,1.57
2018-04-30T16:11:01.943Z,3.00
2018-04-30T16:13:30.300Z,2.10
2018-04-30T16:15:57.888Z,1.90
2018-04-30T16:18:26.295Z,2.20
2018-04-30T16:20:53.949Z,2.40
2018-04-30T16:23:21.530Z,1.73
2018-04-30T16:25:49.113Z,1.73
2018-04-30T16:28:16.706Z,3.10
2018-04-30T16:30:45.064Z,1.40
2018-04-30T16:33:12.624Z,1.70
2018-04-30T16:35:40.202Z,1.87
2018-04-30T16:38:07.813Z,1.90
2018-04-30T16:40:35.408Z,2.27
2018-04-30T16:43:03.011Z,1.43
2018-04-30T16:45:31.392Z,1.80
2018-04-30T16:47:59.845Z,1.60
2018-04-30T16:50:27.409Z,1.83
2018-04-30T16:52:55.763Z,1.87
2018-04-30T16:55:23.378Z,1.90
2018-04-30T16:57:50.988Z,1.80
2018-04-30T17:00:18.653Z,3.53
2018-04-30T17:02:46.211Z,2.80
2018-04-30T17:05:13.813Z,2.33
2018-04-30T17:07:42.172Z,1.73
2018-04-30T17:10:09.777Z,2.10
2018-04-30T17:12:37.427Z,3.60
2018-04-30T17:15:05.019Z,2.03
2018-04-30T17:17:32.640Z,2.63
2018-04-30T17:20:01.020Z,2.37
2018-04-30T17:22:29.452Z,3.33
2018-04-30T17:24:57.021Z,1.70
2018-04-30T17:27:25.144Z,2.17
2018-04-30T17:29:52.760Z,2.37
2018-04-30T17:32:21.417Z,2.40
2018-04-30T17:34:49.020Z,1.80
2018-04-30T17:37:16.664Z,2.73
2018-04-30T17:39:44.280Z,3.00
2018-04-30T17:42:12.629Z,2.10
2018-04-30T17:44:40.236Z,2.27
2018-04-30T17:47:07.985Z,3.67
2018-04-30T17:49:35.557Z,1.77
2018-04-30T17:52:03.111Z,1.70
2018-04-30T17:54:30.716Z,1.57
2018-04-30T17:56:58.333Z,1.40
2018-04-30T17:59:25.992Z,1.80
2018-04-30T18:01:53.574Z,2.07
2018-04-30T18:04:21.211Z,1.80
2018-04-30T18:06:49.633Z,2.53
2018-04-30T18:09:17.208Z,1.90
2018-04-30T18:11:44.810Z,2.33
2018-04-30T18:14:13.186Z,3.03
2018-04-30T18:16:41.521Z,2.67
2018-04-30T18:19:09.146Z,2.50
2018-04-30T18:21:36.738Z,1.60
2018-04-30T18:24:04.325Z,2.43
2018-04-30T18:26:32.733Z,1.90
2018-04-30T18:29:00.304Z,2.10
2018-04-30T18:31:27.882Z,1.90
2018-04-30T18:33:55.526Z,1.97
2018-04-30T18:36:23.173Z,2.60
2018-04-30T18:38:51.542Z,1.97
2018-04-30T18:41:19.187Z,2.40
2018-04-30T18:43:47.789Z,2.20
2018-04-30T18:46:16.155Z,2.07
2018-04-30T18:48:43.783Z,3.20
2018-04-30T18:51:11.431Z,3.60
2018-04-30T18:53:38.993Z,3.00
2018-04-30T18:56:06.604Z,2.10
2018-04-30T18:58:34.182Z,2.43
2018-04-30T19:01:02.545Z,1.63
2018-04-30T19:03:30.121Z,2.17
2018-04-30T19:05:59.335Z,2.63
2018-04-30T19:08:27.733Z,2.47
2018-04-30T19:10:55.334Z,2.67
2018-04-30T19:13:23.001Z,1.97
2018-04-30T19:15:51.387Z,1.93
2018-04-30T19:18:19.005Z,5.13
2018-04-30T19:20:46.623Z,2.90
2018-04-30T19:23:14.235Z,2.00
2018-04-30T19:25:41.860Z,1.97
2018-04-30T19:28:10.213Z,3.80
2018-04-30T19:30:37.830Z,3.00
2018-04-30T19:33:05.530Z,3.33
2018-04-30T19:35:33.156Z,3.67
2018-04-30T19:38:00.863Z,3.30
2018-04-30T19:40:28.422Z,2.20
2018-04-30T19:42:56.023Z,2.00
2018-04-30T19:45:23.662Z,2.00
2018-04-30T19:47:51.705Z,2.30
2018-04-30T19:50:19.281Z,3.60
2018-04-30T19:52:46.921Z,2.80
2018-04-30T19:55:14.545Z,2.53
2018-04-30T19:57:42.908Z,1.90
2018-04-30T20:00:11.283Z,1.90
2018-04-30T20:02:38.932Z,1.70
2018-04-30T20:05:06.530Z,2.23
2018-04-30T20:07:34.108Z,1.93
2018-04-30T20:10:01.907Z,2.20
2018-04-30T20:12:29.492Z,2.00
2018-04-30T20:14:57.897Z,1.80
2018-04-30T20:17:26.251Z,1.90
2018-04-30T20:19:53.850Z,1.80
2018-04-30T20:22:21.439Z,2.30
2018-04-30T20:24:49.052Z,2.50
2018-04-30T20:27:17.424Z,2.53
2018-04-30T20:29:45.870Z,2.97
2018-04-30T20:32:13.437Z,2.50
2018-04-30T20:34:40.985Z,2.60
2018-04-30T20:37:08.600Z,2.17
2018-04-30T20:39:36.192Z,2.20
2018-04-30T20:42:03.779Z,2.40
2018-04-30T20:44:31.468Z,1.70
2018-04-30T20:46:59.063Z,3.00
2018-04-30T20:49:26.670Z,2.20
2018-04-30T20:51:54.259Z,2.00
2018-04-30T20:54:22.637Z,2.50
2018-04-30T20:56:51.061Z,2.10
2018-04-30T20:59:18.613Z,2.90
2018-04-30T21:01:46.225Z,2.53
2018-04-30T21:04:13.799Z,2.30
2018-04-30T21:06:42.163Z,1.60
2018-04-30T21:09:13.732Z,2.00
2018-04-30T21:11:41.317Z,2.50
2018-04-30T21:14:08.943Z,2.70
2018-04-30T21:16:36.542Z,1.73
2018-04-30T21:19:04.116Z,1.60
2018-04-30T21:21:31.684Z,1.50
2018-04-30T21:23:59.260Z,1.40
2018-04-30T21:26:26.846Z,1.70
2018-04-30T21:28:54.642Z,1.63
2018-04-30T21:31:23.032Z,1.50
2018-04-30T21:33:50.608Z,1.90
2018-04-30T21:36:18.929Z,1.90
2018-04-30T21:38:46.520Z,1.70
2018-04-30T21:41:14.887Z,1.73
2018-04-30T21:43:43.254Z,2.30
2018-04-30T21:46:10.905Z,3.07
2018-04-30T21:48:38.487Z,4.00
2018-04-30T21:51:06.856Z,2.30
2018-04-30T21:53:34.464Z,2.00
2018-04-30T21:56:02.055Z,2.10
2018-04-30T21:58:29.681Z,2.00
2018-04-30T22:00:57.274Z,2.60
2018-04-30T22:03:24.826Z,1.90
2018-04-30T22:05:52.411Z,1.87
2018-04-30T22:08:19.996Z,2.10
2018-04-30T22:10:47.572Z,2.07
2018-04-30T22:13:15.922Z,1.67
2018-04-30T22:15:43.510Z,1.90
2018-04-30T22:18:11.837Z,3.30
2018-04-30T22:20:39.477Z,1.77
2018-04-30T22:23:07.044Z,1.80
2018-04-30T22:25:34.606Z,1.50
2018-04-30T22:28:02.190Z,2.10
2018-04-30T22:30:29.781Z,3.13
2018-04-30T22:32:58.116Z,1.80
2018-04-30T22:35:25.755Z,1.87
2018-04-30T22:37:53.327Z,2.07
2018-04-30T22:40:20.911Z,2.33
2018-04-30T22:42:48.807Z,2.30
2018-04-30T22:45:16.460Z,1.90
2018-04-30T22:47:44.084Z,1.77
2018-04-30T22:50:11.783Z,2.40
2018-04-30T22:52:39.366Z,2.10
2018-04-30T22:55:07.803Z,2.50
2018-04-30T22:57:36.380Z,2.70
2018-04-30T23:00:03.971Z,2.07
2018-04-30T23:02:31.580Z,2.40
2018-04-30T23:04:59.144Z,2.27
2018-04-30T23:07:26.848Z,2.37
2018-04-30T23:09:54.448Z,2.70
2018-04-30T23:12:22.816Z,2.50
2018-04-30T23:14:51.231Z,2.30
2018-04-30T23:17:18.872Z,2.17
2018-04-30T23:19:47.223Z,3.07
2018-04-30T23:22:15.315Z,1.80
2018-04-30T23:24:43.850Z,2.30
2018-04-30T23:27:11.423Z,2.03
2018-04-30T23:29:39.028Z,2.97
2018-04-30T23:32:07.389Z,1.67
2018-04-30T23:34:35.015Z,2.17
2018-04-30T23:37:02.676Z,2.60
2018-04-30T23:39:30.149Z,2.30
2018-04-30T23:41:57.715Z,3.20
2018-04-30T23:44:25.285Z,2.13
2018-04-30T23:46:53.432Z,1.90
2018-04-30T23:49:21.027Z,2.23
2018-04-30T23:51:48.601Z,3.13
2018-04-30T23:54:17.655Z,2.00
2018-04-30T23:56:45.227Z,3.30
2018-04-30T23:59:12.811Z,3.27
